Time;durP1;ratioP1;P1;durP2;ratioP2;P2;SDS_P1;SDS_P2;PMS_P1;PMS_P2;Temp;Humidity;BMP_temperature;BMP_pressure;BME280_temperature;BME280_humidity;BME280_pressure;Samples;Min_cycle;Max_cycle;Signal;HPM_P1;HPM_P2
2022/08/13 00:01:39;;;;;;;2.23;1.43;;;15.20;75.20;;;;;;5036914;28;20187;-81
2022/08/13 00:04:09;;;;;;;1.30;1.20;;;15.30;74.20;;;;;;5044524;28;20232;-78
2022/08/13 00:09:07;;;;;;;1.23;1.10;;;15.20;73.90;;;;;;5037012;28;20184;-77
2022/08/13 00:14:29;;;;;;;1.30;1.20;;;15.30;73.50;;;;;;5051801;28;20667;-75
2022/08/13 00:16:56;;;;;;;3.73;1.10;;;15.30;72.50;;;;;;5024843;28;20184;-76
2022/08/13 00:19:26;;;;;;;2.60;0.93;;;15.20;72.70;;;;;;5021780;28;20190;-80
2022/08/13 00:21:54;;;;;;;1.43;0.90;;;15.20;71.00;;;;;;5019189;28;20185;-75
2022/08/13 00:24:22;;;;;;;1.57;1.10;;;15.20;72.20;;;;;;5041089;28;20215;-76
2022/08/13 00:26:49;;;;;;;1.90;1.30;;;15.30;71.90;;;;;;5036116;28;20661;-74
2022/08/13 00:29:17;;;;;;;1.90;1.00;;;15.30;71.70;;;;;;5027911;28;20180;-75
2022/08/13 00:31:46;;;;;;;0.97;0.87;;;15.30;72.00;;;;;;5031185;28;20219;-77
2022/08/13 00:34:13;;;;;;;1.40;1.10;;;15.30;71.90;;;;;;5023600;28;20312;-74
2022/08/13 00:36:41;;;;;;;0.93;0.90;;;15.30;72.30;;;;;;5016530;28;20192;-76
2022/08/13 00:39:10;;;;;;;1.27;1.00;;;15.30;72.50;;;;;;5032330;28;20583;-78
2022/08/13 00:41:42;;;;;;;2.03;1.00;;;15.30;71.70;;;;;;5042457;28;20545;-76
2022/08/13 00:44:14;;;;;;;1.10;1.00;;;15.30;71.70;;;;;;5033577;28;20195;-75
2022/08/13 00:46:41;;;;;;;2.13;1.40;;;15.40;72.10;;;;;;5052824;28;20702;-75
2022/08/13 00:49:13;;;;;;;2.60;1.10;;;15.50;72.20;;;;;;5053050;28;20179;-80
2022/08/13 00:51:42;;;;;;;1.70;1.10;;;15.60;71.80;;;;;;5042608;28;20202;-76
2022/08/13 00:54:13;;;;;;;2.30;1.00;;;15.50;71.00;;;;;;5054825;28;20176;-81
2022/08/13 00:56:41;;;;;;;1.50;0.90;;;15.70;70.80;;;;;;5055095;28;20646;-78
2022/08/13 00:59:13;;;;;;;1.10;1.00;;;15.70;69.80;;;;;;5042044;28;20264;-77
2022/08/13 01:01:44;;;;;;;1.33;1.00;;;15.80;69.50;;;;;;5026932;28;20183;-76
2022/08/13 01:04:12;;;;;;;1.07;0.97;;;15.90;68.90;;;;;;5047248;28;20172;-73
2022/08/13 01:06:41;;;;;;;2.43;1.10;;;16.00;68.70;;;;;;5052277;28;20537;-77
2022/08/13 01:09:13;;;;;;;1.33;1.10;;;16.20;69.10;;;;;;5013560;28;20224;-75
2022/08/13 01:11:41;;;;;;;2.93;0.90;;;16.00;68.50;;;;;;5045261;28;20204;-76
2022/08/13 01:14:09;;;;;;;2.27;0.90;;;16.20;68.90;;;;;;5054511;28;20510;-77
2022/08/13 01:16:37;;;;;;;3.93;1.30;;;16.30;67.80;;;;;;5054481;28;20171;-77
2022/08/13 01:19:09;;;;;;;0.80;0.70;;;16.40;66.60;;;;;;5032917;28;20183;-79
2022/08/13 01:21:44;;;;;;;1.93;1.03;;;16.70;65.60;;;;;;5027357;28;20264;-79
2022/08/13 01:24:13;;;;;;;1.27;1.17;;;16.80;66.20;;;;;;5034326;28;20536;-79
2022/08/13 01:26:40;;;;;;;1.73;0.70;;;16.80;65.60;;;;;;5021059;28;20699;-82
2022/08/13 01:29:09;;;;;;;1.93;0.90;;;16.80;64.00;;;;;;5032976;28;20189;-84
2022/08/13 01:31:40;;;;;;;1.70;0.90;;;16.70;63.90;;;;;;5021044;28;20199;-82
2022/08/13 01:34:08;;;;;;;0.77;0.70;;;16.80;64.90;;;;;;5026476;28;20178;-80
2022/08/13 01:36:37;;;;;;;1.00;0.70;;;16.90;62.50;;;;;;5031273;28;20217;-80
2022/08/13 01:39:05;;;;;;;0.90;0.80;;;17.00;62.60;;;;;;5044616;28;20618;-80
2022/08/13 01:41:34;;;;;;;1.43;0.80;;;17.30;60.80;;;;;;5035361;28;20191;-79
2022/08/13 01:44:06;;;;;;;0.93;0.80;;;17.40;60.90;;;;;;5023706;28;20538;-78
2022/08/13 01:52:08;;;;;;;0.60;0.60;;;17.80;58.70;;;;;;5035495;28;20263;-75
2022/08/13 01:54:38;;;;;;;2.63;0.90;;;18.00;58.40;;;;;;5037693;28;20182;-75
2022/08/13 01:57:07;;;;;;;1.10;1.00;;;17.90;58.20;;;;;;5035963;28;20191;-77
2022/08/13 01:59:38;;;;;;;2.60;1.00;;;18.00;58.20;;;;;;5031363;28;20253;-74
2022/08/13 02:02:10;;;;;;;5.77;0.70;;;18.00;57.20;;;;;;5029551;28;20230;-79
2022/08/13 02:04:39;;;;;;;1.00;0.80;;;18.30;54.50;;;;;;5033448;28;20636;-78
2022/08/13 02:07:08;;;;;;;0.63;0.63;;;18.30;55.00;;;;;;5043048;28;20554;-77
2022/08/13 02:09:36;;;;;;;0.90;0.70;;;18.30;53.50;;;;;;5024088;28;20319;-81
2022/08/13 02:12:04;;;;;;;1.27;0.80;;;18.40;54.70;;;;;;5017035;28;20221;-83
2022/08/13 02:14:33;;;;;;;1.30;0.90;;;18.50;53.80;;;;;;5053545;28;20163;-77
2022/08/13 02:17:24;;;;;;;1.83;0.97;;;18.30;55.20;;;;;;5031603;28;20203;-75
2022/08/13 02:19:56;;;;;;;0.63;0.63;;;18.00;56.30;;;;;;5017684;28;20302;-77
2022/08/13 02:22:25;;;;;;;0.87;0.50;;;18.40;53.40;;;;;;5033941;28;20196;-84
2022/08/13 02:24:57;;;;;;;0.67;0.60;;;18.60;52.00;;;;;;5035608;28;20177;-78
2022/08/13 02:27:26;;;;;;;0.63;0.63;;;18.40;52.70;;;;;;5029511;28;22328;-76
2022/08/13 02:29:56;;;;;;;0.70;0.70;;;18.70;51.40;;;;;;5031911;28;20182;-76
2022/08/13 02:32:24;;;;;;;0.60;0.60;;;18.50;53.00;;;;;;5029145;28;20212;-76
2022/08/13 02:34:52;;;;;;;0.83;0.63;;;18.70;53.10;;;;;;5031513;28;20654;-79
2022/08/13 02:37:21;;;;;;;0.60;0.60;;;18.30;51.30;;;;;;5040505;28;20179;-83
2022/08/13 02:39:53;;;;;;;0.70;0.70;;;18.10;51.20;;;;;;5039393;28;20302;-80
2022/08/13 02:42:22;;;;;;;0.73;0.73;;;18.00;51.80;;;;;;5028161;28;20194;-77
2022/08/13 02:44:51;;;;;;;1.00;0.60;;;18.40;51.70;;;;;;5030393;28;20179;-83
2022/08/13 02:47:21;;;;;;;1.07;0.60;;;19.20;50.40;;;;;;5036922;28;20180;-83
2022/08/13 02:49:52;;;;;;;0.60;0.60;;;19.60;49.80;;;;;;5033224;28;20492;-77
2022/08/13 02:52:20;;;;;;;0.70;0.50;;;19.90;47.80;;;;;;5041423;28;20248;-75
2022/08/13 02:54:49;;;;;;;0.57;0.57;;;19.80;47.00;;;;;;5051299;28;20267;-81
2022/08/13 02:57:17;;;;;;;0.50;0.50;;;19.90;47.20;;;;;;5052681;28;20638;-77
2022/08/13 02:59:44;;;;;;;0.40;0.40;;;19.60;47.10;;;;;;5047407;28;20268;-78
2022/08/13 03:02:12;;;;;;;0.50;0.50;;;19.10;48.60;;;;;;5050962;28;20175;-80
2022/08/13 03:04:45;;;;;;;0.60;0.60;;;18.90;50.20;;;;;;5039168;28;20189;-76
2022/08/13 03:07:12;;;;;;;0.50;0.50;;;18.40;49.90;;;;;;5052409;28;20184;-78
2022/08/13 03:09:40;;;;;;;0.93;0.67;;;17.90;51.70;;;;;;5052263;28;20222;-77
2022/08/13 03:12:09;;;;;;;0.50;0.50;;;17.70;52.70;;;;;;5047405;28;20243;-79
2022/08/13 03:14:38;;;;;;;1.00;0.60;;;17.60;54.70;;;;;;5036950;28;20250;-80
2022/08/13 03:17:05;;;;;;;1.63;0.60;;;17.60;54.10;;;;;;5049987;28;20187;-83
2022/08/13 03:19:33;;;;;;;1.17;0.90;;;17.70;54.70;;;;;;5052102;28;20310;-77
2022/08/13 03:22:01;;;;;;;1.17;0.80;;;17.60;55.10;;;;;;5049640;28;20185;-78
2022/08/13 03:24:28;;;;;;;2.50;1.47;;;17.50;55.10;;;;;;5045655;28;20191;-83
2022/08/13 03:27:00;;;;;;;0.60;0.60;;;17.40;56.30;;;;;;5052300;28;20653;-81
2022/08/13 03:29:28;;;;;;;0.97;0.70;;;17.30;56.60;;;;;;5043919;28;20188;-76
2022/08/13 03:31:56;;;;;;;0.60;0.60;;;17.20;58.30;;;;;;5042225;28;20206;-78
2022/08/13 03:34:24;;;;;;;0.70;0.70;;;17.00;58.80;;;;;;5038351;28;20215;-78
2022/08/13 03:36:53;;;;;;;0.60;0.60;;;16.80;59.20;;;;;;5049699;28;20704;-82
2022/08/13 03:39:21;;;;;;;0.70;0.70;;;17.20;59.20;;;;;;5038894;28;20770;-79
2022/08/13 03:41:51;;;;;;;2.73;0.83;;;18.20;56.50;;;;;;5052345;28;20168;-78
2022/08/13 03:44:18;;;;;;;1.07;0.73;;;19.10;52.50;;;;;;5051030;28;20179;-82
2022/08/13 03:46:47;;;;;;;0.53;0.50;;;19.90;50.80;;;;;;5052168;28;20168;-78
2022/08/13 03:49:15;;;;;;;0.60;0.60;;;20.40;48.20;;;;;;5052048;28;20581;-75
2022/08/13 03:51:43;;;;;;;0.47;0.47;;;20.80;45.40;;;;;;5052201;28;20211;-77
2022/08/13 03:54:12;;;;;;;0.50;0.50;;;20.80;45.00;;;;;;5054458;28;20206;-83
2022/08/13 03:56:40;;;;;;;0.40;0.40;;;20.80;43.20;;;;;;5055970;28;20186;-76
2022/08/13 03:59:13;;;;;;;1.03;0.40;;;21.00;43.70;;;;;;5050511;28;20189;-75
2022/08/13 04:01:41;;;;;;;0.47;0.47;;;20.80;42.40;;;;;;5035739;28;20535;-83
2022/08/13 04:04:09;;;;;;;0.97;0.53;;;20.90;42.80;;;;;;5035542;28;20657;-76
2022/08/13 04:06:36;;;;;;;0.50;0.50;;;21.30;42.50;;;;;;5035973;28;20171;-76
2022/08/13 04:09:04;;;;;;;0.40;0.40;;;21.70;39.40;;;;;;5036216;28;20176;-78
2022/08/13 04:11:31;;;;;;;0.40;0.33;;;21.70;38.50;;;;;;5041806;28;20253;-80
2022/08/13 04:13:59;;;;;;;0.40;0.40;;;21.90;37.20;;;;;;5055818;28;20255;-81
2022/08/13 04:16:26;;;;;;;0.30;0.30;;;21.30;36.00;;;;;;5055722;28;20176;-83
2022/08/13 04:18:54;;;;;;;0.40;0.40;;;21.10;36.70;;;;;;5055606;28;20180;-81
2022/08/13 04:21:28;;;;;;;0.30;0.30;;;20.80;36.80;;;;;;5055725;28;20206;-81
2022/08/13 04:23:57;;;;;;;1.00;0.50;;;20.60;38.00;;;;;;5055703;28;20175;-80
2022/08/13 04:26:26;;;;;;;0.30;0.30;;;21.30;37.70;;;;;;5055398;28;20199;-78
2022/08/13 04:28:53;;;;;;;0.70;0.40;;;21.70;36.40;;;;;;5051731;28;20185;-81
2022/08/13 04:31:21;;;;;;;1.93;0.33;;;21.70;37.00;;;;;;5037254;28;20291;-76
2022/08/13 04:33:50;;;;;;;1.23;0.63;;;21.70;36.70;;;;;;5055386;28;20175;-80
2022/08/13 04:36:18;;;;;;;0.97;0.50;;;21.80;36.70;;;;;;5055721;28;20520;-80
2022/08/13 04:38:45;;;;;;;0.83;0.50;;;21.80;37.10;;;;;;5055262;28;20732;-79
2022/08/13 04:41:12;;;;;;;0.40;0.40;;;22.00;36.90;;;;;;5055738;28;20642;-78
2022/08/13 04:43:40;;;;;;;0.53;0.40;;;22.20;36.10;;;;;;5056526;28;20182;-72
2022/08/13 04:46:07;;;;;;;0.40;0.40;;;22.20;35.90;;;;;;5054658;28;20645;-80
2022/08/13 04:48:35;;;;;;;0.60;0.50;;;22.50;35.90;;;;;;5054929;28;20180;-79
2022/08/13 04:51:03;;;;;;;0.40;0.40;;;22.80;35.80;;;;;;5054739;28;20242;-81
2022/08/13 04:53:33;;;;;;;0.57;0.50;;;22.50;36.70;;;;;;5054905;28;20195;-78
2022/08/13 04:56:01;;;;;;;0.80;0.50;;;22.30;38.00;;;;;;5054587;28;20259;-76
2022/08/13 04:58:35;;;;;;;0.83;0.60;;;22.90;36.20;;;;;;5054814;28;20199;-79
2022/08/13 05:01:11;;;;;;;0.50;0.47;;;23.70;34.70;;;;;;5053667;28;20661;-78
2022/08/13 05:03:41;;;;;;;1.73;0.40;;;24.00;34.70;;;;;;5053461;28;20179;-78
2022/08/13 05:06:18;;;;;;;0.50;0.50;;;24.10;34.50;;;;;;5053783;28;20183;-77
2022/08/13 05:08:56;;;;;;;0.57;0.50;;;23.70;35.20;;;;;;5055054;28;20172;-79
2022/08/13 05:11:24;;;;;;;0.80;0.43;;;22.50;36.20;;;;;;5054634;28;20190;-76
2022/08/13 05:13:51;;;;;;;0.80;0.47;;;21.40;38.00;;;;;;5054557;28;20205;-78
2022/08/13 05:16:19;;;;;;;0.43;0.40;;;22.10;37.70;;;;;;5053281;28;20255;-78
2022/08/13 05:18:54;;;;;;;1.50;0.50;;;22.80;36.60;;;;;;5054644;28;20233;-80
2022/08/13 05:21:22;;;;;;;0.67;0.40;;;22.10;37.20;;;;;;5054764;28;20179;-78
2022/08/13 05:23:53;;;;;;;0.57;0.40;;;21.60;38.60;;;;;;5054433;28;20164;-78
2022/08/13 05:26:31;;;;;;;0.43;0.43;;;21.10;40.20;;;;;;5054665;28;20183;-78
2022/08/13 05:29:06;;;;;;;0.40;0.40;;;20.30;42.70;;;;;;5048803;28;20537;-76
2022/08/13 05:31:37;;;;;;;1.70;0.60;;;19.70;43.40;;;;;;5038886;28;20252;-77
2022/08/13 05:34:05;;;;;;;0.97;0.60;;;19.10;44.50;;;;;;5053885;28;20184;-77
2022/08/13 05:36:33;;;;;;;2.10;0.60;;;18.80;46.10;;;;;;5054330;28;20187;-77
2022/08/13 05:39:01;;;;;;;0.60;0.60;;;18.60;46.70;;;;;;5054241;28;20223;-77
2022/08/13 05:41:28;;;;;;;2.00;0.87;;;18.50;47.40;;;;;;5053867;28;20198;-77
2022/08/13 05:43:56;;;;;;;1.03;0.70;;;18.50;48.30;;;;;;5053738;28;20168;-76
2022/08/13 05:46:26;;;;;;;1.90;0.60;;;18.40;47.60;;;;;;5053766;28;20278;-77
2022/08/13 05:48:56;;;;;;;0.80;0.60;;;18.30;47.10;;;;;;5053924;28;20183;-76
2022/08/13 05:51:28;;;;;;;1.47;0.90;;;18.30;48.10;;;;;;5053928;28;20207;-77
2022/08/13 05:53:59;;;;;;;1.20;0.80;;;18.40;49.00;;;;;;5052639;28;20175;-78
2022/08/13 05:56:37;;;;;;;0.60;0.60;;;18.50;48.30;;;;;;5053974;28;20176;-76
2022/08/13 05:59:06;;;;;;;0.60;0.60;;;19.80;45.60;;;;;;5042273;28;20207;-75
2022/08/13 06:04:19;;;;;;;1.07;0.87;;;20.40;42.30;;;;;;5053695;28;20207;-76
2022/08/13 06:06:50;;;;;;;1.50;0.70;;;21.30;40.60;;;;;;5053685;28;20187;-76
2022/08/13 06:09:19;;;;;;;3.53;0.80;;;21.90;38.50;;;;;;5053646;28;20183;-78
2022/08/13 06:11:51;;;;;;;0.67;0.60;;;22.50;37.00;;;;;;5053601;28;20207;-79
2022/08/13 06:14:20;;;;;;;0.67;0.63;;;21.80;36.10;;;;;;5054495;28;20209;-79
2022/08/13 06:16:50;;;;;;;0.87;0.60;;;21.30;37.10;;;;;;5053474;28;20195;-79
2022/08/13 06:19:20;;;;;;;5.53;1.00;;;20.20;38.60;;;;;;5044684;28;20184;-78
2022/08/13 06:21:49;;;;;;;1.03;0.80;;;19.60;40.40;;;;;;5024895;28;20225;-76
2022/08/13 06:24:17;;;;;;;2.47;0.67;;;19.10;41.90;;;;;;5023301;28;20260;-76
2022/08/13 06:26:44;;;;;;;1.23;0.70;;;18.70;42.80;;;;;;5028297;28;20263;-78
2022/08/13 06:29:12;;;;;;;1.63;0.70;;;18.40;43.80;;;;;;5038085;28;20213;-79
2022/08/13 06:31:40;;;;;;;4.00;1.07;;;18.40;44.60;;;;;;5037259;28;20669;-79
2022/08/13 06:34:09;;;;;;;2.10;0.70;;;18.30;44.90;;;;;;5033458;28;20537;-79
2022/08/13 06:36:37;;;;;;;1.67;0.93;;;18.40;45.10;;;;;;5051642;28;20183;-78
2022/08/13 06:39:05;;;;;;;3.80;1.00;;;18.30;45.40;;;;;;5050564;28;20224;-79
2022/08/13 06:41:34;;;;;;;1.80;1.00;;;18.30;45.70;;;;;;5041118;28;20208;-78
2022/08/13 06:44:02;;;;;;;1.00;0.87;;;18.30;46.80;;;;;;5025158;28;20669;-77
2022/08/13 06:46:30;;;;;;;1.77;1.00;;;18.20;46.80;;;;;;5036858;28;20184;-76
2022/08/13 06:48:59;;;;;;;1.30;0.90;;;18.00;46.70;;;;;;5052904;28;20179;-79
2022/08/13 06:51:27;;;;;;;1.03;0.70;;;17.80;46.50;;;;;;5033367;28;20211;-81
2022/08/13 06:53:55;;;;;;;1.60;1.00;;;17.70;46.20;;;;;;5034080;28;20194;-79
2022/08/13 06:56:26;;;;;;;1.07;0.90;;;17.60;47.00;;;;;;5034944;28;20270;-78
2022/08/13 06:58:58;;;;;;;2.47;1.00;;;17.40;47.10;;;;;;5041311;28;20187;-76
2022/08/13 07:01:28;;;;;;;1.13;0.90;;;17.30;47.50;;;;;;5030891;28;20180;-76
2022/08/13 07:03:55;;;;;;;1.13;0.93;;;17.20;46.20;;;;;;5028734;28;20551;-75
2022/08/13 07:06:28;;;;;;;1.77;0.83;;;17.00;45.80;;;;;;5025511;28;20190;-76
2022/08/13 07:09:01;;;;;;;2.13;1.20;;;17.00;46.50;;;;;;5038531;28;20625;-75
2022/08/13 07:11:32;;;;;;;2.83;0.90;;;16.90;46.30;;;;;;5019707;28;20210;-79
2022/08/13 07:14:02;;;;;;;1.17;0.80;;;16.80;47.10;;;;;;5019805;28;20270;-82
2022/08/13 07:16:33;;;;;;;2.47;1.10;;;16.80;47.00;;;;;;5029994;28;20641;-76
2022/08/13 07:19:01;;;;;;;1.23;1.07;;;16.70;46.60;;;;;;5027962;28;20195;-72
2022/08/13 07:21:31;;;;;;;3.67;1.00;;;16.60;46.30;;;;;;5036700;28;20205;-73
2022/08/13 07:24:04;;;;;;;1.00;0.90;;;16.50;46.40;;;;;;5044338;28;20228;-75
2022/08/13 07:26:35;;;;;;;1.13;0.90;;;16.30;47.30;;;;;;5042166;28;20182;-76
2022/08/13 07:29:05;;;;;;;2.57;1.20;;;16.30;47.40;;;;;;5038416;28;20185;-80
2022/08/13 07:31:39;;;;;;;2.03;1.03;;;16.20;47.70;;;;;;5038165;28;20212;-77
2022/08/13 07:34:07;;;;;;;1.33;0.90;;;16.10;48.30;;;;;;5036418;28;20262;-78
2022/08/13 07:36:38;;;;;;;2.20;0.90;;;16.00;48.00;;;;;;5045322;28;20179;-79
2022/08/13 07:39:13;;;;;;;2.10;1.03;;;16.00;48.00;;;;;;5043031;28;20661;-79
2022/08/13 07:41:45;;;;;;;1.27;1.10;;;16.00;48.80;;;;;;5043753;28;20192;-78
2022/08/13 07:44:20;;;;;;;1.80;1.20;;;16.00;47.90;;;;;;5037856;28;20184;-77
2022/08/13 07:46:52;;;;;;;2.03;1.30;;;15.90;48.20;;;;;;5044435;28;20233;-76
2022/08/13 07:49:22;;;;;;;5.03;1.50;;;15.90;47.80;;;;;;5051487;28;20192;-77
2022/08/13 07:51:51;;;;;;;1.50;1.37;;;15.80;48.40;;;;;;5024729;28;20566;-80
2022/08/13 07:54:18;;;;;;;2.07;1.20;;;15.80;48.30;;;;;;5020471;28;20184;-78
2022/08/13 07:56:49;;;;;;;3.03;1.50;;;15.80;49.20;;;;;;5037060;28;20230;-81
2022/08/13 07:59:17;;;;;;;2.63;1.43;;;15.70;49.30;;;;;;5046627;28;20575;-78
2022/08/13 08:01:48;;;;;;;2.33;1.57;;;15.70;49.40;;;;;;5034707;28;20235;-79
2022/08/13 08:04:18;;;;;;;1.77;1.43;;;15.60;49.60;;;;;;5036413;28;20178;-79
2022/08/13 08:06:47;;;;;;;3.60;1.70;;;15.50;50.00;;;;;;5041563;28;20177;-79
2022/08/13 08:09:35;;;;;;;4.00;2.17;;;15.40;50.20;;;;;;5035570;28;20216;-78
2022/08/13 08:14:51;;;;;;;4.93;2.10;;;15.20;51.60;;;;;;5027532;28;20740;-77
2022/08/13 08:17:20;;;;;;;2.93;1.90;;;15.20;51.80;;;;;;5039041;28;20186;-77
2022/08/13 08:19:47;;;;;;;4.53;2.80;;;15.20;52.40;;;;;;5036789;28;20602;-77
2022/08/13 08:22:18;;;;;;;3.73;2.30;;;15.00;52.40;;;;;;5055367;28;20639;-77
2022/08/13 08:24:50;;;;;;;2.50;1.90;;;15.00;53.30;;;;;;5040242;28;20187;-77
2022/08/13 08:27:19;;;;;;;3.57;1.70;;;15.00;53.00;;;;;;5055432;28;20638;-77
2022/08/13 08:29:48;;;;;;;3.50;1.80;;;14.90;53.30;;;;;;5043920;28;20180;-77
2022/08/13 08:32:16;;;;;;;3.40;2.20;;;14.80;53.40;;;;;;5021012;28;20232;-77
2022/08/13 08:34:46;;;;;;;2.00;1.80;;;14.80;53.50;;;;;;5042544;28;20180;-77
2022/08/13 08:42:59;;;;;;;3.83;1.70;;;14.70;54.50;;;;;;5039686;28;20311;-77
2022/08/13 08:45:28;;;;;;;3.63;2.10;;;14.60;55.00;;;;;;5054818;28;20568;-78
2022/08/13 08:47:56;;;;;;;5.60;2.10;;;14.50;54.80;;;;;;5036863;28;20193;-78
2022/08/13 08:50:26;;;;;;;4.17;2.20;;;14.50;55.80;;;;;;5050306;28;20233;-78
2022/08/13 08:55:43;;;;;;;6.43;2.20;;;14.30;54.90;;;;;;5052961;28;20193;-78
2022/08/13 08:58:12;;;;;;;3.43;1.77;;;14.30;55.30;;;;;;5044747;28;20185;-78
2022/08/13 09:00:41;;;;;;;2.87;1.63;;;14.30;55.10;;;;;;5047612;28;20645;-77
2022/08/13 09:03:10;;;;;;;2.60;1.50;;;14.30;54.80;;;;;;5054249;28;20184;-78
2022/08/13 09:05:38;;;;;;;2.60;1.60;;;14.40;54.30;;;;;;5032139;28;20614;-80
2022/08/13 09:08:06;;;;;;;1.73;1.43;;;14.30;54.20;;;;;;5026408;28;20185;-78
2022/08/13 09:10:36;;;;;;;3.63;1.87;;;14.30;54.60;;;;;;5054664;28;20325;-80
2022/08/13 09:13:04;;;;;;;2.60;1.90;;;14.30;55.40;;;;;;5049487;28;20242;-79
2022/08/13 09:15:39;;;;;;;2.07;1.87;;;14.20;56.20;;;;;;5046220;28;20184;-80
2022/08/13 09:18:07;;;;;;;4.77;1.93;;;14.20;56.00;;;;;;5042666;28;20185;-81
2022/08/13 09:20:35;;;;;;;2.77;1.60;;;14.20;55.70;;;;;;5030909;28;20191;-78
2022/08/13 09:23:08;;;;;;;3.17;1.90;;;14.20;56.40;;;;;;5032409;28;20194;-79
2022/08/13 09:25:41;;;;;;;2.77;1.60;;;14.10;56.00;;;;;;5052371;28;20196;-77
2022/08/13 09:28:09;;;;;;;2.00;1.80;;;14.00;56.10;;;;;;5054091;28;20230;-78
2022/08/13 09:30:37;;;;;;;3.10;1.83;;;13.90;55.90;;;;;;5051612;28;20622;-78
2022/08/13 09:33:05;;;;;;;3.13;2.10;;;13.90;55.90;;;;;;5048079;28;20299;-78
2022/08/13 09:35:33;;;;;;;3.63;1.90;;;13.80;56.80;;;;;;5048068;28;20180;-78
2022/08/13 09:38:04;;;;;;;2.10;1.90;;;13.70;58.00;;;;;;5053821;28;20176;-78
2022/08/13 09:40:37;;;;;;;3.90;2.03;;;13.70;58.20;;;;;;5052833;28;20220;-78
2022/08/13 09:43:17;;;;;;;4.37;1.90;;;13.60;57.60;;;;;;5030983;28;20650;-78
2022/08/13 09:45:45;;;;;;;3.33;1.93;;;13.60;57.50;;;;;;5047906;28;20172;-77
2022/08/13 09:48:13;;;;;;;2.87;1.70;;;13.50;57.70;;;;;;5044912;28;20188;-75
2022/08/13 09:50:41;;;;;;;3.70;1.90;;;13.40;57.60;;;;;;5029820;28;20212;-75
2022/08/13 09:53:09;;;;;;;2.93;1.83;;;13.40;57.00;;;;;;5051859;28;20242;-78
2022/08/13 09:55:37;;;;;;;3.67;1.63;;;13.40;57.20;;;;;;5053498;28;20652;-77
2022/08/13 09:58:05;;;;;;;2.17;1.50;;;13.40;57.80;;;;;;5052839;28;20262;-78
2022/08/13 10:00:33;;;;;;;3.87;1.70;;;13.40;57.60;;;;;;5045411;28;20172;-78
2022/08/13 10:03:06;;;;;;;4.90;2.20;;;13.30;57.70;;;;;;5053352;28;20180;-78
2022/08/13 10:05:37;;;;;;;3.97;2.10;;;13.30;58.60;;;;;;5053701;28;20198;-78
2022/08/13 10:08:06;;;;;;;2.70;1.87;;;13.20;58.90;;;;;;5049157;28;20634;-78
2022/08/13 10:10:35;;;;;;;2.10;1.57;;;13.10;59.00;;;;;;5044905;28;20181;-77
2022/08/13 10:13:03;;;;;;;3.07;1.77;;;13.10;59.70;;;;;;5037860;28;20620;-78
2022/08/13 10:15:31;;;;;;;3.30;1.67;;;13.00;60.00;;;;;;5050389;28;20188;-79
2022/08/13 10:18:02;;;;;;;3.97;1.70;;;13.00;61.10;;;;;;5044504;28;20234;-77
2022/08/13 10:20:45;;;;;;;3.33;1.80;;;12.90;61.10;;;;;;5033410;28;20200;-77
2022/08/13 10:23:17;;;;;;;2.40;1.60;;;12.90;61.50;;;;;;5046949;28;20191;-76
2022/08/13 10:25:46;;;;;;;3.87;1.80;;;12.80;60.70;;;;;;5043110;28;20199;-80
2022/08/13 10:28:27;;;;;;;2.13;1.70;;;12.80;60.50;;;;;;5053270;28;20187;-77
2022/08/13 10:30:55;;;;;;;2.70;1.80;;;12.80;60.50;;;;;;5043227;28;20230;-78
2022/08/13 10:33:23;;;;;;;2.50;1.67;;;12.90;60.50;;;;;;5052657;28;20294;-77
2022/08/13 10:35:52;;;;;;;3.90;2.00;;;12.80;61.00;;;;;;5045016;28;20206;-77
2022/08/13 10:38:26;;;;;;;5.27;2.40;;;12.80;61.60;;;;;;5051596;28;20516;-78
2022/08/13 10:40:58;;;;;;;3.67;2.50;;;12.90;62.00;;;;;;5040965;28;20271;-78
2022/08/13 10:43:26;;;;;;;3.60;2.20;;;12.90;61.80;;;;;;5050569;28;20176;-77
2022/08/13 10:45:59;;;;;;;3.63;2.40;;;12.80;61.40;;;;;;5042277;28;20553;-78
2022/08/13 10:48:30;;;;;;;3.43;2.37;;;12.90;62.00;;;;;;5052895;28;20176;-77
2022/08/13 10:50:57;;;;;;;3.30;2.30;;;12.80;61.50;;;;;;5044206;28;20221;-78
2022/08/13 10:56:12;;;;;;;3.33;2.03;;;12.80;61.70;;;;;;5033223;28;20183;-78
2022/08/13 10:58:40;;;;;;;3.97;2.20;;;12.80;63.00;;;;;;5045855;28;20519;-78
2022/08/13 11:01:07;;;;;;;3.87;2.37;;;12.70;63.60;;;;;;5041296;28;20184;-78
2022/08/13 11:03:35;;;;;;;3.13;2.03;;;12.70;63.90;;;;;;5038206;28;20198;-78
2022/08/13 11:06:04;;;;;;;3.90;2.30;;;12.70;65.00;;;;;;5041944;28;20180;-79
2022/08/13 11:08:34;;;;;;;2.70;2.17;;;12.70;65.30;;;;;;5053159;28;20668;-77
2022/08/13 11:11:02;;;;;;;2.83;2.20;;;12.60;65.10;;;;;;5039929;28;20220;-76
2022/08/13 11:13:31;;;;;;;4.57;2.40;;;12.40;64.30;;;;;;5045715;28;20294;-76
2022/08/13 11:16:00;;;;;;;3.00;2.17;;;12.30;64.50;;;;;;5052148;28;20172;-76
2022/08/13 11:18:29;;;;;;;2.67;2.43;;;12.30;65.70;;;;;;5042829;28;20185;-76
2022/08/13 11:21:02;;;;;;;3.60;2.70;;;12.30;66.00;;;;;;5044149;28;20172;-76
2022/08/13 11:23:31;;;;;;;5.83;2.60;;;12.30;65.80;;;;;;5047108;28;20217;-76
2022/08/13 11:25:58;;;;;;;5.27;2.97;;;12.30;66.00;;;;;;5043474;28;20211;-76
2022/08/13 11:28:26;;;;;;;4.07;2.47;;;12.40;66.90;;;;;;5041727;28;20187;-77
2022/08/13 11:30:55;;;;;;;6.90;2.97;;;12.40;67.10;;;;;;5036636;28;20248;-76
2022/08/13 11:33:24;;;;;;;6.13;2.90;;;12.30;66.50;;;;;;5040109;28;20212;-76
2022/08/13 11:35:52;;;;;;;5.03;2.73;;;12.30;67.00;;;;;;5039296;28;20195;-77
2022/08/13 11:38:22;;;;;;;5.40;3.00;;;12.20;68.10;;;;;;5046994;28;20643;-76
2022/08/13 11:40:51;;;;;;;4.83;3.73;;;12.20;67.90;;;;;;5045757;28;20216;-76
2022/08/13 11:43:18;;;;;;;4.27;3.37;;;12.20;68.00;;;;;;5052230;28;20191;-76
2022/08/13 11:45:47;;;;;;;4.40;3.30;;;12.20;68.60;;;;;;5045692;28;20172;-76
2022/08/13 11:48:15;;;;;;;6.80;3.97;;;12.20;69.90;;;;;;5042879;28;20263;-76
2022/08/13 11:50:42;;;;;;;4.50;3.30;;;12.20;68.80;;;;;;5036866;28;20186;-77
2022/08/13 11:53:10;;;;;;;4.23;3.40;;;12.10;69.70;;;;;;5041825;28;20225;-77
2022/08/13 11:55:38;;;;;;;4.37;3.23;;;12.20;70.40;;;;;;5050152;28;20172;-77
2022/08/13 11:58:07;;;;;;;7.10;3.73;;;12.20;69.80;;;;;;5039392;28;20206;-79
2022/08/13 12:00:36;;;;;;;5.37;3.37;;;12.10;69.40;;;;;;5038539;28;20707;-77
2022/08/13 12:03:04;;;;;;;5.40;3.73;;;12.20;70.20;;;;;;5026896;28;20580;-76
2022/08/13 12:05:32;;;;;;;7.43;4.70;;;12.10;69.70;;;;;;5042614;28;20651;-76
2022/08/13 12:08:00;;;;;;;6.30;4.20;;;12.00;69.70;;;;;;5044386;28;20539;-77
2022/08/13 12:10:29;;;;;;;5.33;4.43;;;12.00;70.10;;;;;;5052112;28;20180;-76
2022/08/13 12:12:56;;;;;;;6.20;4.03;;;11.90;70.60;;;;;;5034068;28;20298;-77
2022/08/13 12:15:23;;;;;;;4.77;3.63;;;11.80;70.30;;;;;;5050835;28;20282;-77
2022/08/13 12:17:51;;;;;;;5.60;3.60;;;11.80;70.80;;;;;;5054366;28;20221;-78
2022/08/13 12:20:23;;;;;;;5.37;3.33;;;11.70;71.60;;;;;;5042492;28;20180;-79
2022/08/13 12:22:54;;;;;;;4.80;3.70;;;11.70;71.60;;;;;;5024924;28;20181;-78
2022/08/13 12:25:23;;;;;;;5.33;3.70;;;11.60;71.50;;;;;;5023762;28;20267;-78
2022/08/13 12:28:06;;;;;;;4.87;3.90;;;11.70;72.40;;;;;;5041855;28;20180;-76
2022/08/13 12:30:33;;;;;;;4.47;3.57;;;11.60;71.80;;;;;;5039970;28;20645;-76
2022/08/13 12:33:00;;;;;;;7.60;3.50;;;11.60;71.50;;;;;;5054694;28;20218;-78
2022/08/13 12:35:28;;;;;;;7.80;3.97;;;11.70;71.50;;;;;;5052126;28;20578;-79
2022/08/13 12:37:56;;;;;;;4.13;3.10;;;11.70;71.40;;;;;;5053703;28;20229;-79
2022/08/13 12:40:23;;;;;;;5.40;3.70;;;11.70;71.50;;;;;;5053619;28;20273;-75
2022/08/13 12:42:51;;;;;;;4.40;3.20;;;11.80;71.20;;;;;;5035752;28;20281;-78
2022/08/13 12:45:18;;;;;;;4.27;3.20;;;11.80;71.00;;;;;;5043550;28;20195;-78
2022/08/13 12:47:46;;;;;;;7.37;4.37;;;11.70;71.10;;;;;;5052443;28;20187;-76
2022/08/13 12:50:13;;;;;;;5.77;3.80;;;11.60;71.40;;;;;;5030754;28;20193;-77
2022/08/13 12:52:41;;;;;;;5.87;3.63;;;11.70;71.90;;;;;;5036199;28;20274;-77
2022/08/13 12:55:09;;;;;;;5.13;3.23;;;11.70;71.30;;;;;;5022240;28;20573;-75
2022/08/13 12:57:38;;;;;;;5.10;3.20;;;11.70;71.00;;;;;;5046313;28;20183;-78
2022/08/13 13:00:10;;;;;;;4.60;3.27;;;11.70;70.80;;;;;;5044537;28;20209;-78
2022/08/13 13:02:39;;;;;;;7.00;2.90;;;11.70;70.90;;;;;;5054855;28;20176;-79
2022/08/13 13:05:06;;;;;;;5.83;3.00;;;11.70;71.10;;;;;;5040420;28;20187;-79
2022/08/13 13:07:34;;;;;;;3.77;2.87;;;11.70;71.50;;;;;;5038862;28;20272;-78
2022/08/13 13:10:02;;;;;;;4.47;3.07;;;11.70;71.80;;;;;;5044193;28;20631;-79
2022/08/13 13:12:30;;;;;;;5.53;3.23;;;11.60;72.30;;;;;;5026418;28;20220;-78
2022/08/13 13:14:57;;;;;;;5.03;3.47;;;11.50;72.30;;;;;;5040734;28;20180;-77
2022/08/13 13:17:24;;;;;;;5.00;3.30;;;11.60;72.10;;;;;;5054165;28;20538;-78
2022/08/13 13:19:53;;;;;;;4.40;3.40;;;11.50;72.20;;;;;;5039180;28;20597;-79
2022/08/13 13:22:21;;;;;;;4.37;3.20;;;11.50;72.40;;;;;;5053295;28;20177;-78
2022/08/13 13:24:48;;;;;;;6.20;3.43;;;11.50;72.60;;;;;;5044399;28;20650;-78
2022/08/13 13:27:15;;;;;;;5.13;3.70;;;11.50;72.30;;;;;;5036063;28;20188;-77